Terminal Aerodrome Forecast
Issued by NWS

Home | Current Version | Previous Version | Graphics & Text | Print | Product List | Glossary On
Versions: 1 2 3 4 5 6 7 8 9 10 11 12 13 14 15
210
FTUS43 KIWX 230538
TAFSBN
TAF
KSBN 230538Z 2306/2406 19010KT P6SM VCSH BKN020 OVC035
     FM230900 20012KT P6SM -SHRA VCTS BKN020CB
      TEMPO 2310/2312 4SM -TSRA BKN010CB
     FM231300 25008KT P6SM -SHRA OVC015
     FM231700 30010KT P6SM BKN025
     FM232000 32012KT P6SM BKN050=

USA.gov is the U.S. government's official web portal to all federal, state and local government web resources and services.